sensor_id;sensor_type;location;lat;lon;timestamp;P1;durP1;ratioP1;P2;durP2;ratioP2
22851;SDS011;11592;45.460;9.240;2023-01-28T00:01:38;28.98;;;12.52;;
22851;SDS011;11592;45.460;9.240;2023-01-28T00:04:05;31.45;;;12.52;;
22851;SDS011;11592;45.460;9.240;2023-01-28T00:06:32;29.42;;;12.45;;
22851;SDS011;11592;45.460;9.240;2023-01-28T00:08:59;31.85;;;12.25;;
22851;SDS011;11592;45.460;9.240;2023-01-28T00:11:25;27.58;;;13.07;;
22851;SDS011;11592;45.460;9.240;2023-01-28T00:13:52;32.30;;;12.93;;
22851;SDS011;11592;45.460;9.240;2023-01-28T00:16:20;32.45;;;12.60;;
22851;SDS011;11592;45.460;9.240;2023-01-28T00:18:52;31.35;;;12.27;;
22851;SDS011;11592;45.460;9.240;2023-01-28T00:21:19;32.90;;;12.73;;
22851;SDS011;11592;45.460;9.240;2023-01-28T00:23:47;29.05;;;12.93;;
22851;SDS011;11592;45.460;9.240;2023-01-28T00:26:17;25.80;;;12.90;;
22851;SDS011;11592;45.460;9.240;2023-01-28T00:28:44;32.40;;;14.38;;
22851;SDS011;11592;45.460;9.240;2023-01-28T00:31:22;35.30;;;13.90;;
22851;SDS011;11592;45.460;9.240;2023-01-28T00:33:51;26.65;;;12.43;;
22851;SDS011;11592;45.460;9.240;2023-01-28T00:36:20;28.70;;;12.30;;
22851;SDS011;11592;45.460;9.240;2023-01-28T00:38:52;30.58;;;12.38;;
22851;SDS011;11592;45.460;9.240;2023-01-28T00:41:21;31.33;;;12.45;;
22851;SDS011;11592;45.460;9.240;2023-01-28T00:43:50;31.27;;;13.27;;
22851;SDS011;11592;45.460;9.240;2023-01-28T00:46:18;33.33;;;12.52;;
22851;SDS011;11592;45.460;9.240;2023-01-28T00:48:46;36.72;;;13.68;;
22851;SDS011;11592;45.460;9.240;2023-01-28T00:51:14;31.17;;;14.63;;
22851;SDS011;11592;45.460;9.240;2023-01-28T00:53:46;29.73;;;12.95;;
22851;SDS011;11592;45.460;9.240;2023-01-28T00:56:13;35.55;;;13.52;;
22851;SDS011;11592;45.460;9.240;2023-01-28T00:58:43;32.40;;;14.43;;
22851;SDS011;11592;45.460;9.240;2023-01-28T01:01:11;33.97;;;13.50;;
22851;SDS011;11592;45.460;9.240;2023-01-28T01:03:40;27.58;;;12.68;;
22851;SDS011;11592;45.460;9.240;2023-01-28T01:06:07;30.63;;;13.00;;
22851;SDS011;11592;45.460;9.240;2023-01-28T01:08:35;28.58;;;13.48;;
22851;SDS011;11592;45.460;9.240;2023-01-28T01:11:06;32.03;;;13.00;;
22851;SDS011;11592;45.460;9.240;2023-01-28T01:13:34;30.60;;;13.30;;
22851;SDS011;11592;45.460;9.240;2023-01-28T01:18:41;26.38;;;12.82;;
22851;SDS011;11592;45.460;9.240;2023-01-28T01:21:15;32.28;;;13.38;;
22851;SDS011;11592;45.460;9.240;2023-01-28T01:23:44;31.67;;;12.90;;
22851;SDS011;11592;45.460;9.240;2023-01-28T01:26:12;28.70;;;13.32;;
22851;SDS011;11592;45.460;9.240;2023-01-28T01:28:39;32.45;;;13.77;;
22851;SDS011;11592;45.460;9.240;2023-01-28T01:31:07;40.20;;;13.55;;
22851;SDS011;11592;45.460;9.240;2023-01-28T01:33:46;30.23;;;13.95;;
22851;SDS011;11592;45.460;9.240;2023-01-28T01:36:15;29.13;;;12.98;;
22851;SDS011;11592;45.460;9.240;2023-01-28T01:38:43;30.92;;;12.88;;
22851;SDS011;11592;45.460;9.240;2023-01-28T01:41:29;31.33;;;13.48;;
22851;SDS011;11592;45.460;9.240;2023-01-28T01:44:01;30.05;;;13.75;;
22851;SDS011;11592;45.460;9.240;2023-01-28T01:49:23;34.92;;;14.55;;
22851;SDS011;11592;45.460;9.240;2023-01-28T01:51:56;31.52;;;13.70;;
22851;SDS011;11592;45.460;9.240;2023-01-28T01:54:28;37.35;;;14.02;;
22851;SDS011;11592;45.460;9.240;2023-01-28T01:56:57;33.90;;;13.68;;
22851;SDS011;11592;45.460;9.240;2023-01-28T01:59:29;27.83;;;13.75;;
22851;SDS011;11592;45.460;9.240;2023-01-28T02:02:00;34.33;;;14.40;;
22851;SDS011;11592;45.460;9.240;2023-01-28T02:04:30;36.58;;;14.00;;
22851;SDS011;11592;45.460;9.240;2023-01-28T02:07:00;33.55;;;15.30;;
22851;SDS011;11592;45.460;9.240;2023-01-28T02:09:33;33.22;;;14.55;;
22851;SDS011;11592;45.460;9.240;2023-01-28T02:12:03;37.03;;;14.85;;
22851;SDS011;11592;45.460;9.240;2023-01-28T02:14:31;38.00;;;16.13;;
22851;SDS011;11592;45.460;9.240;2023-01-28T02:17:00;31.58;;;15.02;;
22851;SDS011;11592;45.460;9.240;2023-01-28T02:19:31;36.35;;;16.15;;
22851;SDS011;11592;45.460;9.240;2023-01-28T02:22:06;37.97;;;16.65;;
22851;SDS011;11592;45.460;9.240;2023-01-28T02:32:52;36.53;;;16.02;;
22851;SDS011;11592;45.460;9.240;2023-01-28T02:35:28;35.92;;;16.35;;
22851;SDS011;11592;45.460;9.240;2023-01-28T02:38:04;43.42;;;16.95;;
22851;SDS011;11592;45.460;9.240;2023-01-28T02:40:41;35.85;;;16.35;;
22851;SDS011;11592;45.460;9.240;2023-01-28T02:43:35;39.58;;;17.13;;
22851;SDS011;11592;45.460;9.240;2023-01-28T02:49:07;38.28;;;15.98;;
22851;SDS011;11592;45.460;9.240;2023-01-28T02:51:49;42.13;;;16.70;;
22851;SDS011;11592;45.460;9.240;2023-01-28T03:00:38;42.85;;;17.95;;
22851;SDS011;11592;45.460;9.240;2023-01-28T03:03:19;38.95;;;16.27;;
22851;SDS011;11592;45.460;9.240;2023-01-28T03:05:54;36.55;;;15.85;;
22851;SDS011;11592;45.460;9.240;2023-01-28T03:08:50;37.03;;;15.98;;
22851;SDS011;11592;45.460;9.240;2023-01-28T03:11:39;39.10;;;16.48;;
22851;SDS011;11592;45.460;9.240;2023-01-28T03:14:31;41.47;;;17.17;;
22851;SDS011;11592;45.460;9.240;2023-01-28T03:20:10;38.88;;;17.02;;
22851;SDS011;11592;45.460;9.240;2023-01-28T03:22:57;43.88;;;16.92;;
22851;SDS011;11592;45.460;9.240;2023-01-28T03:25:49;35.15;;;15.95;;
22851;SDS011;11592;45.460;9.240;2023-01-28T03:28:39;42.83;;;17.08;;
22851;SDS011;11592;45.460;9.240;2023-01-28T03:31:28;41.75;;;17.42;;
22851;SDS011;11592;45.460;9.240;2023-01-28T03:36:59;43.22;;;17.17;;
22851;SDS011;11592;45.460;9.240;2023-01-28T03:39:27;39.88;;;16.58;;
22851;SDS011;11592;45.460;9.240;2023-01-28T03:44:32;39.58;;;17.48;;
22851;SDS011;11592;45.460;9.240;2023-01-28T03:47:18;41.63;;;16.50;;
22851;SDS011;11592;45.460;9.240;2023-01-28T03:49:48;38.83;;;17.05;;
22851;SDS011;11592;45.460;9.240;2023-01-28T03:52:17;41.42;;;16.67;;
22851;SDS011;11592;45.460;9.240;2023-01-28T03:55:02;41.58;;;17.55;;
22851;SDS011;11592;45.460;9.240;2023-01-28T03:57:39;49.10;;;17.33;;
22851;SDS011;11592;45.460;9.240;2023-01-28T04:00:06;41.45;;;16.20;;
22851;SDS011;11592;45.460;9.240;2023-01-28T04:02:35;44.22;;;17.45;;
22851;SDS011;11592;45.460;9.240;2023-01-28T04:05:06;41.15;;;18.65;;
22851;SDS011;11592;45.460;9.240;2023-01-28T04:07:38;42.40;;;17.20;;
22851;SDS011;11592;45.460;9.240;2023-01-28T04:10:05;41.15;;;18.60;;
22851;SDS011;11592;45.460;9.240;2023-01-28T04:12:33;40.60;;;16.73;;
22851;SDS011;11592;45.460;9.240;2023-01-28T04:15:03;46.00;;;18.48;;
22851;SDS011;11592;45.460;9.240;2023-01-28T04:17:44;37.72;;;17.85;;
22851;SDS011;11592;45.460;9.240;2023-01-28T04:20:12;40.70;;;17.08;;
22851;SDS011;11592;45.460;9.240;2023-01-28T04:22:39;43.95;;;17.02;;
22851;SDS011;11592;45.460;9.240;2023-01-28T04:25:06;39.78;;;17.23;;
22851;SDS011;11592;45.460;9.240;2023-01-28T04:27:34;44.53;;;17.52;;
22851;SDS011;11592;45.460;9.240;2023-01-28T04:30:00;38.78;;;17.38;;
22851;SDS011;11592;45.460;9.240;2023-01-28T04:32:27;42.75;;;18.67;;
22851;SDS011;11592;45.460;9.240;2023-01-28T04:34:54;39.85;;;16.75;;
22851;SDS011;11592;45.460;9.240;2023-01-28T04:37:21;45.50;;;17.95;;
22851;SDS011;11592;45.460;9.240;2023-01-28T04:39:47;39.95;;;17.25;;
22851;SDS011;11592;45.460;9.240;2023-01-28T04:42:14;42.05;;;17.52;;
22851;SDS011;11592;45.460;9.240;2023-01-28T04:44:41;42.08;;;18.23;;
22851;SDS011;11592;45.460;9.240;2023-01-28T04:47:08;37.08;;;17.90;;
22851;SDS011;11592;45.460;9.240;2023-01-28T04:49:35;45.33;;;17.70;;
22851;SDS011;11592;45.460;9.240;2023-01-28T04:52:02;37.70;;;17.70;;
22851;SDS011;11592;45.460;9.240;2023-01-28T04:54:29;48.35;;;17.48;;
22851;SDS011;11592;45.460;9.240;2023-01-28T04:56:55;37.70;;;17.88;;
22851;SDS011;11592;45.460;9.240;2023-01-28T04:59:22;41.28;;;17.80;;
22851;SDS011;11592;45.460;9.240;2023-01-28T05:01:49;43.25;;;17.33;;
22851;SDS011;11592;45.460;9.240;2023-01-28T05:04:16;41.35;;;17.15;;
22851;SDS011;11592;45.460;9.240;2023-01-28T05:06:42;41.65;;;18.35;;
22851;SDS011;11592;45.460;9.240;2023-01-28T05:09:09;41.63;;;17.55;;
22851;SDS011;11592;45.460;9.240;2023-01-28T05:11:36;44.05;;;18.77;;
22851;SDS011;11592;45.460;9.240;2023-01-28T05:14:04;38.38;;;17.85;;
22851;SDS011;11592;45.460;9.240;2023-01-28T05:16:31;44.88;;;19.13;;
22851;SDS011;11592;45.460;9.240;2023-01-28T05:19:00;38.60;;;17.88;;
22851;SDS011;11592;45.460;9.240;2023-01-28T05:21:27;41.70;;;17.95;;
22851;SDS011;11592;45.460;9.240;2023-01-28T05:23:54;42.42;;;18.58;;
22851;SDS011;11592;45.460;9.240;2023-01-28T05:26:21;42.63;;;18.70;;
22851;SDS011;11592;45.460;9.240;2023-01-28T05:28:48;41.60;;;17.38;;
22851;SDS011;11592;45.460;9.240;2023-01-28T05:31:16;37.35;;;18.15;;
22851;SDS011;11592;45.460;9.240;2023-01-28T05:33:43;39.85;;;18.45;;
22851;SDS011;11592;45.460;9.240;2023-01-28T05:36:09;37.47;;;17.58;;
22851;SDS011;11592;45.460;9.240;2023-01-28T05:38:36;41.92;;;18.50;;
22851;SDS011;11592;45.460;9.240;2023-01-28T05:41:03;41.22;;;18.17;;
22851;SDS011;11592;45.460;9.240;2023-01-28T05:43:30;46.13;;;17.83;;
22851;SDS011;11592;45.460;9.240;2023-01-28T05:45:57;44.70;;;18.70;;
22851;SDS011;11592;45.460;9.240;2023-01-28T05:48:23;48.03;;;18.75;;
22851;SDS011;11592;45.460;9.240;2023-01-28T05:50:50;41.90;;;19.27;;
22851;SDS011;11592;45.460;9.240;2023-01-28T05:53:17;44.58;;;20.10;;
22851;SDS011;11592;45.460;9.240;2023-01-28T05:55:50;38.47;;;18.40;;
22851;SDS011;11592;45.460;9.240;2023-01-28T05:58:21;39.75;;;17.65;;
22851;SDS011;11592;45.460;9.240;2023-01-28T06:00:48;40.17;;;18.00;;
22851;SDS011;11592;45.460;9.240;2023-01-28T06:03:15;35.45;;;18.00;;
22851;SDS011;11592;45.460;9.240;2023-01-28T06:05:41;47.30;;;19.65;;
22851;SDS011;11592;45.460;9.240;2023-01-28T06:08:08;42.20;;;17.88;;
22851;SDS011;11592;45.460;9.240;2023-01-28T06:10:35;43.05;;;18.75;;
22851;SDS011;11592;45.460;9.240;2023-01-28T06:13:02;45.00;;;18.80;;
22851;SDS011;11592;45.460;9.240;2023-01-28T06:15:29;43.38;;;18.95;;
22851;SDS011;11592;45.460;9.240;2023-01-28T06:17:55;44.78;;;19.73;;
22851;SDS011;11592;45.460;9.240;2023-01-28T06:20:22;46.28;;;18.63;;
22851;SDS011;11592;45.460;9.240;2023-01-28T06:22:52;44.30;;;18.08;;
22851;SDS011;11592;45.460;9.240;2023-01-28T06:25:19;44.88;;;18.60;;
22851;SDS011;11592;45.460;9.240;2023-01-28T06:27:46;43.05;;;18.15;;
22851;SDS011;11592;45.460;9.240;2023-01-28T06:30:12;44.50;;;19.17;;
22851;SDS011;11592;45.460;9.240;2023-01-28T06:32:40;40.17;;;18.38;;
22851;SDS011;11592;45.460;9.240;2023-01-28T06:35:06;43.92;;;18.15;;
22851;SDS011;11592;45.460;9.240;2023-01-28T06:37:34;42.33;;;18.00;;
22851;SDS011;11592;45.460;9.240;2023-01-28T06:40:01;45.67;;;17.92;;
22851;SDS011;11592;45.460;9.240;2023-01-28T06:42:28;37.50;;;17.20;;
22851;SDS011;11592;45.460;9.240;2023-01-28T06:44:55;41.55;;;18.13;;
22851;SDS011;11592;45.460;9.240;2023-01-28T06:47:22;38.38;;;17.02;;
22851;SDS011;11592;45.460;9.240;2023-01-28T06:49:49;40.65;;;17.92;;
22851;SDS011;11592;45.460;9.240;2023-01-28T06:52:15;38.53;;;16.92;;
22851;SDS011;11592;45.460;9.240;2023-01-28T06:54:42;43.90;;;17.25;;
22851;SDS011;11592;45.460;9.240;2023-01-28T06:57:09;39.45;;;17.50;;
22851;SDS011;11592;45.460;9.240;2023-01-28T06:59:36;43.63;;;16.77;;
22851;SDS011;11592;45.460;9.240;2023-01-28T07:02:02;49.40;;;18.75;;
22851;SDS011;11592;45.460;9.240;2023-01-28T07:04:30;35.35;;;16.17;;
22851;SDS011;11592;45.460;9.240;2023-01-28T07:06:57;37.40;;;16.02;;
22851;SDS011;11592;45.460;9.240;2023-01-28T07:09:23;39.60;;;16.50;;
22851;SDS011;11592;45.460;9.240;2023-01-28T07:11:50;45.95;;;16.65;;
22851;SDS011;11592;45.460;9.240;2023-01-28T07:14:17;34.33;;;15.93;;
22851;SDS011;11592;45.460;9.240;2023-01-28T07:16:44;39.67;;;16.35;;
22851;SDS011;11592;45.460;9.240;2023-01-28T07:19:10;44.00;;;17.35;;
22851;SDS011;11592;45.460;9.240;2023-01-28T07:21:37;36.28;;;15.38;;
22851;SDS011;11592;45.460;9.240;2023-01-28T07:24:04;40.72;;;16.27;;
22851;SDS011;11592;45.460;9.240;2023-01-28T07:26:31;44.15;;;17.45;;
22851;SDS011;11592;45.460;9.240;2023-01-28T07:28:58;37.63;;;16.05;;
22851;SDS011;11592;45.460;9.240;2023-01-28T07:31:25;39.50;;;17.60;;
22851;SDS011;11592;45.460;9.240;2023-01-28T07:33:52;38.22;;;15.93;;
22851;SDS011;11592;45.460;9.240;2023-01-28T07:36:19;44.50;;;17.33;;
22851;SDS011;11592;45.460;9.240;2023-01-28T07:38:45;43.20;;;16.77;;
22851;SDS011;11592;45.460;9.240;2023-01-28T07:41:12;43.78;;;17.85;;
22851;SDS011;11592;45.460;9.240;2023-01-28T07:43:39;44.42;;;17.83;;
22851;SDS011;11592;45.460;9.240;2023-01-28T07:46:06;47.95;;;18.08;;
22851;SDS011;11592;45.460;9.240;2023-01-28T07:48:32;49.22;;;18.42;;
22851;SDS011;11592;45.460;9.240;2023-01-28T07:51:01;42.20;;;16.88;;
22851;SDS011;11592;45.460;9.240;2023-01-28T07:53:27;52.17;;;18.58;;
22851;SDS011;11592;45.460;9.240;2023-01-28T07:55:58;44.70;;;18.42;;
22851;SDS011;11592;45.460;9.240;2023-01-28T07:58:26;43.83;;;18.35;;
22851;SDS011;11592;45.460;9.240;2023-01-28T08:00:56;41.80;;;17.85;;
22851;SDS011;11592;45.460;9.240;2023-01-28T08:03:26;40.20;;;18.45;;
22851;SDS011;11592;45.460;9.240;2023-01-28T08:05:55;46.20;;;19.13;;
22851;SDS011;11592;45.460;9.240;2023-01-28T08:08:23;43.78;;;17.92;;
22851;SDS011;11592;45.460;9.240;2023-01-28T08:10:51;50.20;;;20.23;;
22851;SDS011;11592;45.460;9.240;2023-01-28T08:13:18;49.90;;;18.88;;
22851;SDS011;11592;45.460;9.240;2023-01-28T08:15:45;44.03;;;18.23;;
22851;SDS011;11592;45.460;9.240;2023-01-28T08:18:13;47.22;;;18.80;;
22851;SDS011;11592;45.460;9.240;2023-01-28T08:20:41;47.28;;;19.42;;
22851;SDS011;11592;45.460;9.240;2023-01-28T08:28:15;46.55;;;19.52;;
22851;SDS011;11592;45.460;9.240;2023-01-28T08:30:42;46.38;;;19.40;;
22851;SDS011;11592;45.460;9.240;2023-01-28T08:33:10;46.65;;;19.63;;
22851;SDS011;11592;45.460;9.240;2023-01-28T08:35:38;49.00;;;20.45;;
22851;SDS011;11592;45.460;9.240;2023-01-28T08:38:06;45.45;;;20.08;;
22851;SDS011;11592;45.460;9.240;2023-01-28T08:40:34;44.08;;;19.08;;
22851;SDS011;11592;45.460;9.240;2023-01-28T08:43:01;41.10;;;18.20;;
22851;SDS011;11592;45.460;9.240;2023-01-28T08:45:28;42.78;;;18.92;;
22851;SDS011;11592;45.460;9.240;2023-01-28T08:47:59;44.10;;;18.33;;
22851;SDS011;11592;45.460;9.240;2023-01-28T08:50:28;52.10;;;19.42;;
22851;SDS011;11592;45.460;9.240;2023-01-28T08:53:01;37.15;;;17.70;;
22851;SDS011;11592;45.460;9.240;2023-01-28T08:55:30;44.65;;;19.58;;
22851;SDS011;11592;45.460;9.240;2023-01-28T08:58:00;39.53;;;18.60;;
22851;SDS011;11592;45.460;9.240;2023-01-28T09:00:30;41.95;;;19.45;;
22851;SDS011;11592;45.460;9.240;2023-01-28T09:02:57;44.22;;;19.48;;
22851;SDS011;11592;45.460;9.240;2023-01-28T09:05:24;45.50;;;18.80;;
22851;SDS011;11592;45.460;9.240;2023-01-28T09:07:51;44.08;;;20.02;;
22851;SDS011;11592;45.460;9.240;2023-01-28T09:10:18;41.17;;;17.75;;
22851;SDS011;11592;45.460;9.240;2023-01-28T09:12:47;43.60;;;18.38;;
22851;SDS011;11592;45.460;9.240;2023-01-28T09:15:14;42.22;;;17.13;;
22851;SDS011;11592;45.460;9.240;2023-01-28T09:17:42;43.15;;;18.70;;
22851;SDS011;11592;45.460;9.240;2023-01-28T09:20:09;46.15;;;18.83;;
22851;SDS011;11592;45.460;9.240;2023-01-28T09:22:38;49.85;;;18.95;;
22851;SDS011;11592;45.460;9.240;2023-01-28T09:25:05;41.55;;;19.77;;
22851;SDS011;11592;45.460;9.240;2023-01-28T09:27:33;42.63;;;18.35;;
22851;SDS011;11592;45.460;9.240;2023-01-28T09:29:59;38.90;;;17.88;;
22851;SDS011;11592;45.460;9.240;2023-01-28T09:32:26;38.10;;;17.98;;
22851;SDS011;11592;45.460;9.240;2023-01-28T09:34:53;41.75;;;18.83;;
22851;SDS011;11592;45.460;9.240;2023-01-28T09:37:20;45.58;;;18.83;;
22851;SDS011;11592;45.460;9.240;2023-01-28T09:39:46;48.15;;;19.33;;
22851;SDS011;11592;45.460;9.240;2023-01-28T09:45:17;40.50;;;17.92;;
22851;SDS011;11592;45.460;9.240;2023-01-28T09:48:08;43.85;;;17.95;;
22851;SDS011;11592;45.460;9.240;2023-01-28T09:50:44;42.47;;;17.15;;
22851;SDS011;11592;45.460;9.240;2023-01-28T09:55:47;37.75;;;16.75;;
22851;SDS011;11592;45.460;9.240;2023-01-28T09:58:19;38.75;;;16.67;;
22851;SDS011;11592;45.460;9.240;2023-01-28T10:06:01;39.75;;;18.27;;
22851;SDS011;11592;45.460;9.240;2023-01-28T10:14:00;37.63;;;17.33;;
22851;SDS011;11592;45.460;9.240;2023-01-28T10:16:36;43.78;;;18.30;;
22851;SDS011;11592;45.460;9.240;2023-01-28T10:19:23;41.42;;;17.15;;
22851;SDS011;11592;45.460;9.240;2023-01-28T10:22:02;37.83;;;16.92;;
22851;SDS011;11592;45.460;9.240;2023-01-28T10:24:43;34.90;;;16.48;;
22851;SDS011;11592;45.460;9.240;2023-01-28T10:27:18;34.40;;;16.38;;
22851;SDS011;11592;45.460;9.240;2023-01-28T10:29:47;38.42;;;16.98;;
22851;SDS011;11592;45.460;9.240;2023-01-28T10:32:27;40.10;;;17.40;;
22851;SDS011;11592;45.460;9.240;2023-01-28T10:35:00;42.53;;;18.05;;
22851;SDS011;11592;45.460;9.240;2023-01-28T10:37:28;42.10;;;18.80;;
22851;SDS011;11592;45.460;9.240;2023-01-28T10:39:59;45.50;;;18.95;;
22851;SDS011;11592;45.460;9.240;2023-01-28T10:42:29;38.40;;;17.98;;
22851;SDS011;11592;45.460;9.240;2023-01-28T10:44:59;45.47;;;19.63;;
22851;SDS011;11592;45.460;9.240;2023-01-28T10:50:29;47.13;;;19.95;;
22851;SDS011;11592;45.460;9.240;2023-01-28T10:53:01;44.15;;;19.30;;
22851;SDS011;11592;45.460;9.240;2023-01-28T10:55:29;41.03;;;18.88;;
22851;SDS011;11592;45.460;9.240;2023-01-28T10:58:02;40.85;;;19.00;;
22851;SDS011;11592;45.460;9.240;2023-01-28T11:00:32;43.05;;;20.95;;
22851;SDS011;11592;45.460;9.240;2023-01-28T11:03:01;42.03;;;19.60;;
22851;SDS011;11592;45.460;9.240;2023-01-28T11:05:29;45.42;;;20.75;;
22851;SDS011;11592;45.460;9.240;2023-01-28T11:08:12;42.55;;;20.23;;
22851;SDS011;11592;45.460;9.240;2023-01-28T11:10:40;43.70;;;20.45;;
22851;SDS011;11592;45.460;9.240;2023-01-28T11:13:17;43.40;;;19.30;;
22851;SDS011;11592;45.460;9.240;2023-01-28T11:16:04;49.40;;;19.30;;
22851;SDS011;11592;45.460;9.240;2023-01-28T11:18:38;41.08;;;18.40;;
22851;SDS011;11592;45.460;9.240;2023-01-28T11:21:21;40.20;;;18.67;;
22851;SDS011;11592;45.460;9.240;2023-01-28T11:23:55;37.88;;;18.70;;
22851;SDS011;11592;45.460;9.240;2023-01-28T11:26:28;41.78;;;18.63;;
22851;SDS011;11592;45.460;9.240;2023-01-28T11:28:59;38.75;;;19.48;;
22851;SDS011;11592;45.460;9.240;2023-01-28T11:31:26;43.35;;;20.42;;
22851;SDS011;11592;45.460;9.240;2023-01-28T11:33:55;38.03;;;20.05;;
22851;SDS011;11592;45.460;9.240;2023-01-28T11:36:27;38.53;;;19.88;;
22851;SDS011;11592;45.460;9.240;2023-01-28T11:38:59;36.55;;;20.02;;
22851;SDS011;11592;45.460;9.240;2023-01-28T11:41:42;32.20;;;19.40;;
22851;SDS011;11592;45.460;9.240;2023-01-28T11:44:12;35.95;;;19.25;;
22851;SDS011;11592;45.460;9.240;2023-01-28T11:46:56;34.00;;;20.63;;
22851;SDS011;11592;45.460;9.240;2023-01-28T12:04:18;34.47;;;20.95;;
22851;SDS011;11592;45.460;9.240;2023-01-28T12:09:59;32.25;;;19.88;;
22851;SDS011;11592;45.460;9.240;2023-01-28T12:12:43;34.00;;;19.88;;
22851;SDS011;11592;45.460;9.240;2023-01-28T12:15:35;31.45;;;19.58;;
22851;SDS011;11592;45.460;9.240;2023-01-28T12:18:30;31.27;;;19.77;;
22851;SDS011;11592;45.460;9.240;2023-01-28T12:24:21;33.28;;;19.25;;
22851;SDS011;11592;45.460;9.240;2023-01-28T12:26:57;30.30;;;17.40;;
22851;SDS011;11592;45.460;9.240;2023-01-28T12:37:32;32.30;;;19.63;;
22851;SDS011;11592;45.460;9.240;2023-01-28T12:43:07;33.38;;;19.27;;
22851;SDS011;11592;45.460;9.240;2023-01-28T12:51:02;30.98;;;18.67;;
22851;SDS011;11592;45.460;9.240;2023-01-28T12:53:31;28.00;;;18.15;;
22851;SDS011;11592;45.460;9.240;2023-01-28T13:01:24;31.20;;;18.55;;
22851;SDS011;11592;45.460;9.240;2023-01-28T13:03:56;30.73;;;19.63;;
22851;SDS011;11592;45.460;9.240;2023-01-28T13:06:32;29.10;;;18.67;;
22851;SDS011;11592;45.460;9.240;2023-01-28T13:09:14;27.55;;;18.17;;
22851;SDS011;11592;45.460;9.240;2023-01-28T13:11:44;26.73;;;17.40;;
22851;SDS011;11592;45.460;9.240;2023-01-28T13:14:13;25.00;;;17.27;;
22851;SDS011;11592;45.460;9.240;2023-01-28T13:16:41;26.65;;;18.08;;
22851;SDS011;11592;45.460;9.240;2023-01-28T13:21:44;29.35;;;17.00;;
22851;SDS011;11592;45.460;9.240;2023-01-28T13:26:42;27.02;;;17.63;;
22851;SDS011;11592;45.460;9.240;2023-01-28T13:29:35;27.30;;;16.52;;
22851;SDS011;11592;45.460;9.240;2023-01-28T13:32:23;27.63;;;17.73;;
22851;SDS011;11592;45.460;9.240;2023-01-28T13:34:59;30.30;;;18.30;;
22851;SDS011;11592;45.460;9.240;2023-01-28T13:37:32;28.70;;;18.52;;
22851;SDS011;11592;45.460;9.240;2023-01-28T13:42:34;30.02;;;18.55;;
22851;SDS011;11592;45.460;9.240;2023-01-28T13:47:44;31.10;;;19.13;;
22851;SDS011;11592;45.460;9.240;2023-01-28T13:50:14;37.05;;;22.40;;
22851;SDS011;11592;45.460;9.240;2023-01-28T13:52:54;34.08;;;21.30;;
22851;SDS011;11592;45.460;9.240;2023-01-28T14:04:02;35.60;;;20.65;;
22851;SDS011;11592;45.460;9.240;2023-01-28T14:06:54;35.50;;;19.25;;
22851;SDS011;11592;45.460;9.240;2023-01-28T14:18:04;35.08;;;20.13;;
22851;SDS011;11592;45.460;9.240;2023-01-28T14:20:42;36.40;;;21.15;;
22851;SDS011;11592;45.460;9.240;2023-01-28T14:23:17;35.90;;;20.65;;
22851;SDS011;11592;45.460;9.240;2023-01-28T14:28:22;36.15;;;21.50;;
22851;SDS011;11592;45.460;9.240;2023-01-28T14:31:14;40.60;;;21.10;;
22851;SDS011;11592;45.460;9.240;2023-01-28T14:33:59;34.63;;;20.02;;
22851;SDS011;11592;45.460;9.240;2023-01-28T14:36:51;34.95;;;20.92;;
22851;SDS011;11592;45.460;9.240;2023-01-28T14:39:23;33.85;;;20.63;;
22851;SDS011;11592;45.460;9.240;2023-01-28T14:41:55;35.03;;;21.20;;
22851;SDS011;11592;45.460;9.240;2023-01-28T14:44:29;34.63;;;20.85;;
22851;SDS011;11592;45.460;9.240;2023-01-28T14:49:47;30.15;;;19.27;;
22851;SDS011;11592;45.460;9.240;2023-01-28T14:55:23;33.97;;;19.23;;
22851;SDS011;11592;45.460;9.240;2023-01-28T14:57:57;34.63;;;18.70;;
22851;SDS011;11592;45.460;9.240;2023-01-28T15:00:30;34.77;;;17.37;;
22851;SDS011;11592;45.460;9.240;2023-01-28T15:02:58;35.53;;;16.90;;
22851;SDS011;11592;45.460;9.240;2023-01-28T15:05:27;35.85;;;17.92;;
22851;SDS011;11592;45.460;9.240;2023-01-28T15:07:55;31.45;;;17.58;;
22851;SDS011;11592;45.460;9.240;2023-01-28T15:10:35;31.27;;;15.60;;
22851;SDS011;11592;45.460;9.240;2023-01-28T15:13:07;32.72;;;17.05;;
22851;SDS011;11592;45.460;9.240;2023-01-28T15:15:40;30.20;;;14.48;;
22851;SDS011;11592;45.460;9.240;2023-01-28T15:18:15;26.90;;;12.93;;
22851;SDS011;11592;45.460;9.240;2023-01-28T15:20:45;32.22;;;15.93;;
22851;SDS011;11592;45.460;9.240;2023-01-28T15:23:13;29.45;;;15.07;;
22851;SDS011;11592;45.460;9.240;2023-01-28T15:25:47;29.20;;;15.63;;
22851;SDS011;11592;45.460;9.240;2023-01-28T15:28:16;37.70;;;15.70;;
22851;SDS011;11592;45.460;9.240;2023-01-28T15:30:50;31.08;;;15.88;;
22851;SDS011;11592;45.460;9.240;2023-01-28T15:33:19;34.58;;;15.60;;
22851;SDS011;11592;45.460;9.240;2023-01-28T15:35:48;34.72;;;16.17;;
22851;SDS011;11592;45.460;9.240;2023-01-28T15:38:16;37.15;;;17.40;;
22851;SDS011;11592;45.460;9.240;2023-01-28T15:40:45;36.55;;;17.58;;
22851;SDS011;11592;45.460;9.240;2023-01-28T15:43:24;35.40;;;17.45;;
22851;SDS011;11592;45.460;9.240;2023-01-28T15:45:56;34.08;;;16.63;;
22851;SDS011;11592;45.460;9.240;2023-01-28T15:48:25;31.30;;;15.18;;
22851;SDS011;11592;45.460;9.240;2023-01-28T15:51:36;32.95;;;15.90;;
22851;SDS011;11592;45.460;9.240;2023-01-28T15:53:50;36.67;;;16.05;;
22851;SDS011;11592;45.460;9.240;2023-01-28T15:56:25;32.30;;;15.48;;
22851;SDS011;11592;45.460;9.240;2023-01-28T15:58:53;31.42;;;14.80;;
22851;SDS011;11592;45.460;9.240;2023-01-28T16:01:21;34.35;;;15.70;;
22851;SDS011;11592;45.460;9.240;2023-01-28T16:04:02;32.15;;;14.57;;
22851;SDS011;11592;45.460;9.240;2023-01-28T16:06:31;32.10;;;15.85;;
22851;SDS011;11592;45.460;9.240;2023-01-28T16:09:25;33.65;;;15.68;;
22851;SDS011;11592;45.460;9.240;2023-01-28T16:12:10;34.78;;;16.20;;
22851;SDS011;11592;45.460;9.240;2023-01-28T16:14:48;32.72;;;16.77;;
22851;SDS011;11592;45.460;9.240;2023-01-28T16:17:20;33.88;;;16.50;;
22851;SDS011;11592;45.460;9.240;2023-01-28T16:19:55;36.03;;;17.38;;
22851;SDS011;11592;45.460;9.240;2023-01-28T16:22:31;38.28;;;18.20;;
22851;SDS011;11592;45.460;9.240;2023-01-28T16:24:58;38.88;;;18.40;;
22851;SDS011;11592;45.460;9.240;2023-01-28T16:27:29;41.38;;;20.88;;
22851;SDS011;11592;45.460;9.240;2023-01-28T16:29:59;45.83;;;21.25;;
22851;SDS011;11592;45.460;9.240;2023-01-28T16:32:27;47.67;;;21.00;;
22851;SDS011;11592;45.460;9.240;2023-01-28T16:34:56;46.05;;;20.98;;
22851;SDS011;11592;45.460;9.240;2023-01-28T16:37:22;46.78;;;20.63;;
22851;SDS011;11592;45.460;9.240;2023-01-28T16:39:54;46.20;;;21.00;;
22851;SDS011;11592;45.460;9.240;2023-01-28T16:42:25;41.40;;;19.63;;
22851;SDS011;11592;45.460;9.240;2023-01-28T16:44:52;46.50;;;20.65;;
22851;SDS011;11592;45.460;9.240;2023-01-28T16:47:19;47.17;;;20.08;;
22851;SDS011;11592;45.460;9.240;2023-01-28T16:49:45;42.63;;;20.35;;
22851;SDS011;11592;45.460;9.240;2023-01-28T16:52:12;47.42;;;20.13;;
22851;SDS011;11592;45.460;9.240;2023-01-28T16:54:39;47.63;;;19.58;;
22851;SDS011;11592;45.460;9.240;2023-01-28T16:57:09;41.50;;;19.10;;
22851;SDS011;11592;45.460;9.240;2023-01-28T16:59:41;42.88;;;18.63;;